createdAt,value
2023-05-12T00:00:32.657Z,23.42
2023-05-12T00:01:32.315Z,23.41
2023-05-12T00:02:32.366Z,23.41
2023-05-12T00:03:32.486Z,23.41
2023-05-12T00:04:32.439Z,23.41
2023-05-12T00:05:32.655Z,23.40
2023-05-12T00:06:32.494Z,23.41
2023-05-12T00:07:32.559Z,23.41
2023-05-12T00:08:32.600Z,23.40
2023-05-12T00:09:32.658Z,23.40
2023-05-12T00:10:32.702Z,23.39
2023-05-12T00:11:32.757Z,23.39
2023-05-12T00:12:32.836Z,23.39
2023-05-12T00:13:32.872Z,23.39
2023-05-12T00:14:32.957Z,23.39
2023-05-12T00:15:33.163Z,23.38
2023-05-12T00:16:33.120Z,23.38
2023-05-12T00:17:33.158Z,23.38
2023-05-12T00:18:33.205Z,23.38
2023-05-12T00:19:33.262Z,23.37
2023-05-12T00:20:33.647Z,23.37
2023-05-12T00:21:33.378Z,23.37
2023-05-12T00:22:33.413Z,23.37
2023-05-12T00:23:33.470Z,23.37
2023-05-12T00:24:33.542Z,23.37
2023-05-12T00:25:33.605Z,23.37
2023-05-12T00:26:33.640Z,23.36
2023-05-12T00:27:33.679Z,23.36
2023-05-12T00:28:33.743Z,23.36
2023-05-12T00:29:33.788Z,23.36
2023-05-12T00:30:33.856Z,23.36
2023-05-12T00:31:34.001Z,23.35
2023-05-12T00:32:34.044Z,23.35
2023-05-12T00:33:34.039Z,23.35
2023-05-12T00:34:34.103Z,23.35
2023-05-12T00:35:34.160Z,23.35
2023-05-12T00:36:34.204Z,23.34
2023-05-12T00:37:34.235Z,23.34
2023-05-12T00:38:34.301Z,23.34
2023-05-12T00:39:34.357Z,23.33
2023-05-12T00:40:34.674Z,23.34
2023-05-12T00:41:34.486Z,23.34
2023-05-12T00:42:34.554Z,23.33
2023-05-12T00:43:34.597Z,23.33
2023-05-12T00:44:34.631Z,23.33
2023-05-12T00:45:35.193Z,23.33
2023-05-12T00:46:34.783Z,23.33
2023-05-12T00:47:34.871Z,23.31
2023-05-12T00:48:34.849Z,23.32
2023-05-12T00:49:34.936Z,23.32
2023-05-12T00:50:35.028Z,23.31
2023-05-12T00:51:35.055Z,23.30
2023-05-12T00:52:35.078Z,23.31
2023-05-12T00:53:45.405Z,23.31
2023-05-12T00:54:36.137Z,23.31
2023-05-12T00:55:35.190Z,23.30
2023-05-12T00:56:35.138Z,23.30
2023-05-12T00:57:35.114Z,23.29
2023-05-12T00:58:35.106Z,23.30
2023-05-12T00:59:35.121Z,23.29
2023-05-12T01:00:35.080Z,23.29
2023-05-12T01:01:35.201Z,23.28
2023-05-12T01:02:35.199Z,23.27
2023-05-12T01:03:35.206Z,23.28
2023-05-12T01:04:35.210Z,23.28
2023-05-12T01:05:35.264Z,23.29
2023-05-12T01:06:35.319Z,23.27
2023-05-12T01:07:35.355Z,23.28
2023-05-12T01:08:35.450Z,23.27
2023-05-12T01:09:35.492Z,23.27
2023-05-12T01:10:35.566Z,23.27
2023-05-12T01:11:35.626Z,23.26
2023-05-12T01:12:35.677Z,23.26
2023-05-12T01:13:35.759Z,23.26
2023-05-12T01:14:35.812Z,23.26
2023-05-12T01:15:35.915Z,23.26
2023-05-12T01:16:35.913Z,23.26
2023-05-12T01:17:36.242Z,23.26
2023-05-12T01:18:36.070Z,23.25
2023-05-12T01:19:36.023Z,23.25
2023-05-12T01:20:36.078Z,23.25
2023-05-12T01:21:36.220Z,23.25
2023-05-12T01:22:36.170Z,23.24
2023-05-12T01:23:36.216Z,23.24
2023-05-12T01:24:36.300Z,23.24
2023-05-12T01:25:36.321Z,23.24
2023-05-12T01:26:36.668Z,23.23
2023-05-12T01:27:36.425Z,23.23
2023-05-12T01:28:36.476Z,23.23
2023-05-12T01:29:36.572Z,23.23
2023-05-12T01:30:36.630Z,23.23
2023-05-12T01:31:36.788Z,23.23
2023-05-12T01:32:36.796Z,23.22
2023-05-12T01:33:36.814Z,23.22
2023-05-12T01:34:36.888Z,23.22
2023-05-12T01:35:36.932Z,23.21
2023-05-12T01:36:36.988Z,23.22
2023-05-12T01:37:37.024Z,23.22
2023-05-12T01:38:37.096Z,23.21
2023-05-12T01:39:37.134Z,23.20
2023-05-12T01:40:37.175Z,23.21
2023-05-12T01:41:37.228Z,23.20
2023-05-12T01:42:37.256Z,23.20
2023-05-12T01:43:37.263Z,23.20
2023-05-12T01:44:37.345Z,23.20
2023-05-12T01:45:37.394Z,23.20
2023-05-12T01:46:37.509Z,23.19
2023-05-12T01:47:37.551Z,23.19
2023-05-12T01:48:37.582Z,23.19
2023-05-12T01:49:37.576Z,23.18
2023-05-12T01:50:37.758Z,23.19
2023-05-12T01:51:37.788Z,23.19
2023-05-12T01:52:37.783Z,23.19
2023-05-12T01:53:37.805Z,23.18
2023-05-12T01:54:37.814Z,23.18
2023-05-12T01:55:37.849Z,23.18
2023-05-12T01:56:37.904Z,23.17
2023-05-12T01:57:37.971Z,23.17
2023-05-12T01:58:38.090Z,23.17
2023-05-12T01:59:38.123Z,23.17
2023-05-12T02:00:38.184Z,23.16
2023-05-12T02:01:38.280Z,23.16
2023-05-12T02:02:39.719Z,23.16
2023-05-12T02:03:38.548Z,23.16
2023-05-12T02:04:38.446Z,23.16
2023-05-12T02:05:38.529Z,23.15
2023-05-12T02:06:38.569Z,23.16
2023-05-12T02:07:38.565Z,23.15
2023-05-12T02:08:38.649Z,23.14
2023-05-12T02:09:38.705Z,23.14
2023-05-12T02:10:38.735Z,23.14
2023-05-12T02:11:38.781Z,23.14
2023-05-12T02:12:38.850Z,23.14
2023-05-12T02:13:38.853Z,23.14
2023-05-12T02:14:38.886Z,23.14
2023-05-12T02:15:38.960Z,23.14
2023-05-12T02:16:39.227Z,23.14
2023-05-12T02:17:39.119Z,23.14
2023-05-12T02:18:39.234Z,23.14
2023-05-12T02:19:39.205Z,23.14
2023-05-12T02:20:39.225Z,23.13
2023-05-12T02:21:39.756Z,23.13
2023-05-12T02:22:39.321Z,23.10
2023-05-12T02:23:39.319Z,23.11
2023-05-12T02:24:40.173Z,23.13
2023-05-12T02:25:39.375Z,23.11
2023-05-12T02:26:39.716Z,23.11
2023-05-12T02:27:39.437Z,23.11
2023-05-12T02:28:39.542Z,23.10
2023-05-12T02:29:39.573Z,23.11
2023-05-12T02:30:39.576Z,23.10
2023-05-12T02:31:39.764Z,23.10
2023-05-12T02:32:39.716Z,23.10
2023-05-12T02:33:39.689Z,23.10
2023-05-12T02:34:39.706Z,23.09
2023-05-12T02:35:39.761Z,23.09
2023-05-12T02:36:39.786Z,23.09
2023-05-12T02:37:39.881Z,23.09
2023-05-12T02:38:39.832Z,23.08
2023-05-12T02:39:39.888Z,23.09
2023-05-12T02:40:39.934Z,23.09
2023-05-12T02:41:40.220Z,23.08
2023-05-12T02:42:40.000Z,23.08
2023-05-12T02:43:40.039Z,23.08
2023-05-12T02:44:40.076Z,23.07
2023-05-12T02:45:40.156Z,23.08
2023-05-12T02:46:40.229Z,23.08
2023-05-12T02:47:40.314Z,23.07
2023-05-12T02:48:40.233Z,23.08
2023-05-12T02:49:40.236Z,23.08
2023-05-12T02:50:40.218Z,23.07
2023-05-12T02:51:40.725Z,23.06
2023-05-12T02:52:40.243Z,23.06
2023-05-12T02:53:40.309Z,23.06
2023-05-12T02:54:40.299Z,23.06
2023-05-12T02:55:40.343Z,23.06
2023-05-12T02:56:40.357Z,23.06
2023-05-12T02:57:40.380Z,23.05
2023-05-12T02:58:40.382Z,23.05
2023-05-12T02:59:40.442Z,23.05
2023-05-12T03:00:40.413Z,23.05
2023-05-12T03:01:40.773Z,23.05
2023-05-12T03:02:40.588Z,23.05
2023-05-12T03:03:40.763Z,23.05
2023-05-12T03:04:40.542Z,23.03
2023-05-12T03:05:40.582Z,23.04
2023-05-12T03:06:40.723Z,23.04
2023-05-12T03:07:40.666Z,23.04
2023-05-12T03:08:40.705Z,23.03
2023-05-12T03:09:40.652Z,23.03
2023-05-12T03:10:40.681Z,23.02
2023-05-12T03:11:40.720Z,23.02
2023-05-12T03:12:40.685Z,23.03
2023-05-12T03:13:40.673Z,23.03
2023-05-12T03:14:40.686Z,23.02
2023-05-12T03:15:40.701Z,23.02
2023-05-12T03:16:40.812Z,23.02
2023-05-12T03:17:40.687Z,23.01
2023-05-12T03:18:40.673Z,23.01
2023-05-12T03:19:40.685Z,23.02
2023-05-12T03:20:40.692Z,23.01
2023-05-12T03:21:40.749Z,23.01
2023-05-12T03:22:40.738Z,23.01
2023-05-12T03:23:40.776Z,23.00
2023-05-12T03:24:40.784Z,23.01
2023-05-12T03:25:40.824Z,23.00
2023-05-12T03:26:40.828Z,23.00
2023-05-12T03:27:40.814Z,23.00
2023-05-12T03:28:40.809Z,23.00
2023-05-12T03:29:40.803Z,22.99
2023-05-12T03:30:40.801Z,22.99
2023-05-12T03:31:41.322Z,22.99
2023-05-12T03:32:40.864Z,22.99
2023-05-12T03:33:40.801Z,22.99
2023-05-12T03:34:40.813Z,22.98
2023-05-12T03:35:40.807Z,22.99
2023-05-12T03:36:40.798Z,22.98
2023-05-12T03:37:40.808Z,22.97
2023-05-12T03:38:40.815Z,22.98
2023-05-12T03:39:40.814Z,22.98
2023-05-12T03:40:40.792Z,22.98
2023-05-12T03:41:40.842Z,22.97
2023-05-12T03:42:40.820Z,22.97
2023-05-12T03:43:40.762Z,22.96
2023-05-12T03:44:40.786Z,22.97
2023-05-12T03:45:40.792Z,22.97
2023-05-12T03:46:41.293Z,22.97
2023-05-12T03:47:41.075Z,22.96
2023-05-12T03:48:40.774Z,22.96
2023-05-12T03:49:40.788Z,22.96
2023-05-12T03:50:40.805Z,22.96
2023-05-12T03:51:41.234Z,22.96
2023-05-12T03:52:40.756Z,22.95
2023-05-12T03:53:40.785Z,22.95
2023-05-12T03:54:40.771Z,22.95
2023-05-12T03:55:40.752Z,22.95
2023-05-12T03:56:40.774Z,22.95
2023-05-12T03:57:40.747Z,22.94
2023-05-12T03:58:40.750Z,22.95
2023-05-12T03:59:40.756Z,22.95
2023-05-12T04:00:40.794Z,22.94
2023-05-12T04:01:40.791Z,22.94
2023-05-12T04:02:40.745Z,22.94
2023-05-12T04:03:40.810Z,22.94
2023-05-12T04:04:40.731Z,22.94
2023-05-12T04:05:40.730Z,22.93
2023-05-12T04:06:40.715Z,22.93
2023-05-12T04:07:40.715Z,22.93
2023-05-12T04:08:42.015Z,22.93
2023-05-12T04:09:40.696Z,22.92
2023-05-12T04:10:40.676Z,22.93
2023-05-12T04:11:40.701Z,22.92
2023-05-12T04:12:40.718Z,22.92
2023-05-12T04:13:40.837Z,22.92
2023-05-12T04:14:43.131Z,22.92
2023-05-12T04:15:40.699Z,22.92
2023-05-12T04:16:40.799Z,22.91
2023-05-12T04:17:40.712Z,22.91
2023-05-12T04:18:40.693Z,22.91
2023-05-12T04:19:40.664Z,22.91
2023-05-12T04:20:40.645Z,22.91
2023-05-12T04:21:40.750Z,22.91
2023-05-12T04:22:40.644Z,22.90
2023-05-12T04:23:40.620Z,22.90
2023-05-12T04:24:40.622Z,22.90
2023-05-12T04:25:40.637Z,22.90
2023-05-12T04:26:40.742Z,22.90
2023-05-12T04:27:40.582Z,22.90
2023-05-12T04:28:40.579Z,22.89
2023-05-12T04:29:40.633Z,22.89
2023-05-12T04:30:40.560Z,22.89
2023-05-12T04:31:40.773Z,22.90
2023-05-12T04:32:40.621Z,22.89
2023-05-12T04:33:40.561Z,22.89
2023-05-12T04:34:40.552Z,22.88
2023-05-12T04:35:40.555Z,22.88
2023-05-12T04:36:40.555Z,22.89
2023-05-12T04:37:40.527Z,22.88
2023-05-12T04:38:40.520Z,22.88
2023-05-12T04:39:40.490Z,22.88
2023-05-12T04:40:40.507Z,22.88
2023-05-12T04:41:40.474Z,22.88
2023-05-12T04:42:40.476Z,22.88
2023-05-12T04:44:40.461Z,22.87
2023-05-12T04:45:40.444Z,22.87
2023-05-12T04:46:40.561Z,22.86
2023-05-12T04:47:40.427Z,22.86
2023-05-12T04:48:40.409Z,22.87
2023-05-12T04:49:40.438Z,22.87
2023-05-12T04:50:40.406Z,22.87
2023-05-12T04:51:40.363Z,22.86
2023-05-12T04:52:40.393Z,22.87
2023-05-12T04:53:40.380Z,22.87
2023-05-12T04:54:40.362Z,22.87
2023-05-12T04:55:40.382Z,22.86
2023-05-12T04:56:40.370Z,22.87
2023-05-12T04:57:40.364Z,22.87
2023-05-12T04:58:40.357Z,22.86
2023-05-12T04:59:41.578Z,22.86
2023-05-12T05:00:40.315Z,22.85
2023-05-12T05:01:40.343Z,22.84
2023-05-12T05:02:40.359Z,22.83
2023-05-12T05:03:40.516Z,22.83
2023-05-12T05:04:40.275Z,22.81
2023-05-12T05:05:40.267Z,22.81
2023-05-12T05:06:40.279Z,22.81
2023-05-12T05:07:40.332Z,22.80
2023-05-12T05:08:40.267Z,22.80
2023-05-12T05:09:40.276Z,22.81
2023-05-12T05:10:40.274Z,22.81
2023-05-12T05:11:40.251Z,22.81
2023-05-12T05:12:40.248Z,22.82
2023-05-12T05:13:40.230Z,22.83
2023-05-12T05:14:40.208Z,22.83
2023-05-12T05:15:40.260Z,22.83
2023-05-12T05:16:40.210Z,22.85
2023-05-12T05:17:40.352Z,22.84
2023-05-12T05:18:40.230Z,22.86
2023-05-12T05:19:53.535Z,22.87
2023-05-12T05:20:45.123Z,22.87
2023-05-12T05:21:40.179Z,22.87
2023-05-12T05:22:40.324Z,22.88
2023-05-12T05:23:40.166Z,22.89
2023-05-12T05:24:40.182Z,22.89
2023-05-12T05:25:40.796Z,22.89
2023-05-12T05:26:40.199Z,22.89
2023-05-12T05:27:40.293Z,22.89
2023-05-12T05:28:40.263Z,22.89
2023-05-12T05:29:40.273Z,22.88
2023-05-12T05:30:40.280Z,22.88
2023-05-12T05:31:40.322Z,22.88
2023-05-12T05:32:40.462Z,22.88
2023-05-12T05:33:40.338Z,22.87
2023-05-12T05:34:40.409Z,22.87
2023-05-12T05:35:40.359Z,22.86
2023-05-12T05:36:40.357Z,22.85
2023-05-12T05:37:40.869Z,22.84
2023-05-12T05:38:40.396Z,22.84
2023-05-12T05:39:40.387Z,22.83
2023-05-12T05:40:52.216Z,22.83
2023-05-12T05:41:41.375Z,22.82
2023-05-12T05:42:40.892Z,22.81
2023-05-12T05:43:40.362Z,22.81
2023-05-12T05:44:40.633Z,22.81
2023-05-12T05:45:40.396Z,22.80
2023-05-12T05:46:40.434Z,22.79
2023-05-12T05:47:40.848Z,22.79
2023-05-12T05:48:40.357Z,22.79
2023-05-12T05:49:40.343Z,22.79
2023-05-12T05:50:40.386Z,22.79
2023-05-12T05:51:40.291Z,22.79
2023-05-12T05:52:40.309Z,22.79
2023-05-12T05:53:40.346Z,22.79
2023-05-12T05:54:40.359Z,22.78
2023-05-12T05:55:40.288Z,22.79
2023-05-12T05:56:40.307Z,22.80
2023-05-12T05:57:40.298Z,22.78
2023-05-12T05:58:40.270Z,22.80
2023-05-12T05:59:40.240Z,22.79
2023-05-12T06:00:40.245Z,22.80
2023-05-12T06:01:40.298Z,22.80
2023-05-12T06:02:40.455Z,22.80
2023-05-12T06:03:40.314Z,22.78
2023-05-12T06:04:40.247Z,22.77
2023-05-12T06:05:40.297Z,22.76
2023-05-12T06:06:40.271Z,22.75
2023-05-12T06:07:40.285Z,22.74
2023-05-12T06:08:40.346Z,22.73
2023-05-12T06:09:40.348Z,22.72
2023-05-12T06:10:40.357Z,22.72
2023-05-12T06:11:40.413Z,22.72
2023-05-12T06:12:40.815Z,22.73
2023-05-12T06:13:40.475Z,22.72
2023-05-12T06:14:40.434Z,22.72
2023-05-12T06:15:40.484Z,22.72
2023-05-12T06:16:40.586Z,22.72
2023-05-12T06:17:40.517Z,22.72
2023-05-12T06:18:40.562Z,22.72
2023-05-12T06:19:40.511Z,22.73
2023-05-12T06:20:40.571Z,22.73
2023-05-12T06:21:40.582Z,22.73
2023-05-12T06:22:40.813Z,22.75
2023-05-12T06:23:40.557Z,22.76
2023-05-12T06:24:40.561Z,22.76
2023-05-12T06:25:40.578Z,22.78
2023-05-12T06:26:40.563Z,22.80
2023-05-12T06:27:40.575Z,22.82
2023-05-12T06:28:40.558Z,22.83
2023-05-12T06:29:40.535Z,22.84
2023-05-12T06:30:40.540Z,22.84
2023-05-12T06:31:40.703Z,22.85
2023-05-12T06:32:40.599Z,22.87
2023-05-12T06:33:40.637Z,22.89
2023-05-12T06:34:40.639Z,22.89
2023-05-12T06:35:40.741Z,22.90
2023-05-12T06:36:40.701Z,22.90
2023-05-12T06:37:40.852Z,22.91
2023-05-12T06:38:40.768Z,22.93
2023-05-12T06:39:40.874Z,22.93
2023-05-12T06:40:40.890Z,22.95
2023-05-12T06:41:40.993Z,22.97
2023-05-12T06:42:40.976Z,22.97
2023-05-12T06:43:41.061Z,22.99
2023-05-12T06:44:42.221Z,23.00
2023-05-12T06:45:41.219Z,23.04
2023-05-12T06:46:41.337Z,23.07
2023-05-12T06:47:41.883Z,23.09
2023-05-12T06:48:41.343Z,23.10
2023-05-12T06:49:41.400Z,23.14
2023-05-12T06:50:41.470Z,23.16
2023-05-12T06:51:41.536Z,23.18
2023-05-12T06:52:41.583Z,23.18
2023-05-12T06:53:41.637Z,23.19
2023-05-12T06:54:41.689Z,23.20
2023-05-12T06:55:41.734Z,23.17
2023-05-12T06:56:41.816Z,23.13
2023-05-12T06:57:41.857Z,23.09
2023-05-12T06:58:41.895Z,23.07
2023-05-12T06:59:41.932Z,23.06
2023-05-12T07:00:41.944Z,23.05
2023-05-12T07:01:41.899Z,23.05
2023-05-12T07:02:41.910Z,23.04
2023-05-12T07:03:41.962Z,23.06
2023-05-12T07:04:41.920Z,23.06
2023-05-12T07:05:42.064Z,23.06
2023-05-12T07:06:42.026Z,23.08
2023-05-12T07:07:42.095Z,23.08
2023-05-12T07:08:42.120Z,23.09
2023-05-12T07:09:42.345Z,23.09
2023-05-12T07:10:42.323Z,23.10
2023-05-12T07:11:42.287Z,23.12
2023-05-12T07:12:42.843Z,23.13
2023-05-12T07:13:42.387Z,23.15
2023-05-12T07:14:42.462Z,23.16
2023-05-12T07:15:42.555Z,23.17
2023-05-12T07:16:42.573Z,23.18
2023-05-12T07:17:42.672Z,23.20
2023-05-12T07:18:42.721Z,23.21
2023-05-12T07:19:42.715Z,23.22
2023-05-12T07:20:42.798Z,23.24
2023-05-12T07:21:42.770Z,23.24
2023-05-12T07:22:42.805Z,23.25
2023-05-12T07:23:42.871Z,23.26
2023-05-12T07:24:42.947Z,23.27
2023-05-12T07:25:42.947Z,23.28
2023-05-12T07:26:42.987Z,23.29
2023-05-12T07:27:43.002Z,23.29
2023-05-12T07:28:43.066Z,23.30
2023-05-12T07:29:43.039Z,23.31
2023-05-12T07:30:43.085Z,23.33
2023-05-12T07:31:43.151Z,23.34
2023-05-12T07:32:43.256Z,23.36
2023-05-12T07:33:43.202Z,23.37
2023-05-12T07:34:43.205Z,23.39
2023-05-12T07:35:43.273Z,23.40
2023-05-12T07:36:43.267Z,23.40
2023-05-12T07:37:43.839Z,23.41
2023-05-12T07:38:43.368Z,23.42
2023-05-12T07:39:43.430Z,23.43
2023-05-12T07:40:43.451Z,23.45
2023-05-12T07:41:43.493Z,23.45
2023-05-12T07:42:43.545Z,23.46
2023-05-12T07:43:43.572Z,23.48
2023-05-12T07:44:43.580Z,23.48
2023-05-12T07:45:43.610Z,23.49
2023-05-12T07:46:43.772Z,23.51
2023-05-12T07:47:43.728Z,23.52
2023-05-12T07:48:43.750Z,23.53
2023-05-12T07:49:43.775Z,23.52
2023-05-12T07:50:43.836Z,23.52
2023-05-12T07:51:43.838Z,23.51
2023-05-12T07:52:43.890Z,23.51
2023-05-12T07:53:44.363Z,23.51
2023-05-12T07:54:43.964Z,23.49
2023-05-12T07:55:44.847Z,23.48
2023-05-12T07:56:44.085Z,23.47
2023-05-12T07:57:44.138Z,23.44
2023-05-12T07:58:46.693Z,23.43
2023-05-12T07:59:44.160Z,23.41
2023-05-12T08:00:44.207Z,23.39
2023-05-12T08:01:44.226Z,23.38
2023-05-12T08:02:44.276Z,23.36
2023-05-12T08:03:44.285Z,23.35
2023-05-12T08:04:44.563Z,23.33
2023-05-12T08:05:44.145Z,23.31
2023-05-12T08:06:44.155Z,23.28
2023-05-12T08:07:44.121Z,23.27
2023-05-12T08:08:44.318Z,23.26
2023-05-12T08:09:44.113Z,23.25
2023-05-12T08:10:44.131Z,23.24
2023-05-12T08:11:46.586Z,23.22
2023-05-12T08:12:44.107Z,23.20
2023-05-12T08:13:44.103Z,23.19
2023-05-12T08:14:44.049Z,23.18
2023-05-12T08:15:44.109Z,23.17
2023-05-12T08:16:44.111Z,23.16
2023-05-12T08:17:44.053Z,23.15
2023-05-12T08:18:44.425Z,23.13
2023-05-12T08:19:44.033Z,23.13
2023-05-12T08:20:44.025Z,23.13
2023-05-12T08:21:44.009Z,23.11
2023-05-12T08:22:44.002Z,23.09
2023-05-12T08:23:44.386Z,23.08
2023-05-12T08:24:44.007Z,23.08
2023-05-12T08:25:43.991Z,23.07
2023-05-12T08:26:43.980Z,23.06
2023-05-12T08:27:43.937Z,23.05
2023-05-12T08:28:44.408Z,23.04
2023-05-12T08:29:44.173Z,23.04
2023-05-12T08:30:43.985Z,23.03
2023-05-12T08:31:43.976Z,23.03
2023-05-12T08:32:43.978Z,23.02
2023-05-12T08:33:43.923Z,23.01
2023-05-12T08:34:43.893Z,23.00
2023-05-12T08:35:44.866Z,23.00
2023-05-12T08:36:43.963Z,22.99
2023-05-12T08:37:43.889Z,22.99
2023-05-12T08:38:44.337Z,22.98
2023-05-12T08:39:43.920Z,22.97
2023-05-12T08:40:43.875Z,22.97
2023-05-12T08:41:43.852Z,22.96
2023-05-12T08:42:43.888Z,22.96
2023-05-12T08:43:43.935Z,22.95
2023-05-12T08:44:43.841Z,22.95
2023-05-12T08:45:44.155Z,22.94
2023-05-12T08:46:43.966Z,22.94
2023-05-12T08:47:43.937Z,22.93
2023-05-12T08:48:43.818Z,22.93
2023-05-12T08:49:43.795Z,22.92
2023-05-12T08:50:43.799Z,22.92
2023-05-12T08:51:46.605Z,22.92
2023-05-12T08:52:43.808Z,22.91
2023-05-12T08:53:43.809Z,22.91
2023-05-12T08:54:54.996Z,22.90
2023-05-12T08:55:53.354Z,22.89
2023-05-12T08:57:43.745Z,22.88
2023-05-12T08:58:43.746Z,22.88
2023-05-12T08:59:43.797Z,22.88
2023-05-12T09:00:43.760Z,22.87
2023-05-12T09:01:43.780Z,22.87
2023-05-12T09:02:53.083Z,22.87
2023-05-12T09:03:44.755Z,22.85
2023-05-12T09:04:44.517Z,22.86
2023-05-12T09:05:43.664Z,22.85
2023-05-12T09:06:43.694Z,22.85
2023-05-12T09:07:43.669Z,22.84
2023-05-12T09:08:43.880Z,22.84
2023-05-12T09:09:43.682Z,22.83
2023-05-12T09:10:44.364Z,22.83
2023-05-12T09:11:43.656Z,22.83
2023-05-12T09:12:43.635Z,22.83
2023-05-12T09:13:43.651Z,22.83
2023-05-12T09:14:43.603Z,22.82
2023-05-12T09:15:43.615Z,22.82
2023-05-12T09:16:43.653Z,22.81
2023-05-12T09:17:43.756Z,22.80
2023-05-12T09:18:43.952Z,22.81
2023-05-12T09:19:43.599Z,22.81
2023-05-12T09:20:43.596Z,22.79
2023-05-12T09:21:43.552Z,22.79
2023-05-12T09:22:43.561Z,22.78
2023-05-12T09:23:43.880Z,22.78
2023-05-12T09:24:43.574Z,22.78
2023-05-12T09:25:43.553Z,22.78
2023-05-12T09:26:43.598Z,22.77
2023-05-12T09:27:43.589Z,22.77
2023-05-12T09:28:43.635Z,22.76
2023-05-12T09:29:57.968Z,22.76
2023-05-12T09:30:44.664Z,22.76
2023-05-12T09:31:43.699Z,22.76
2023-05-12T09:32:43.703Z,22.76
2023-05-12T09:33:43.914Z,22.75
2023-05-12T09:34:43.652Z,22.75
2023-05-12T09:35:43.721Z,22.75
2023-05-12T09:36:43.669Z,22.74
2023-05-12T09:37:43.636Z,22.74
2023-05-12T09:38:43.596Z,22.74
2023-05-12T09:39:43.605Z,22.73
2023-05-12T09:40:43.664Z,22.74
2023-05-12T09:41:43.593Z,22.74
2023-05-12T09:42:43.642Z,22.73
2023-05-12T09:43:43.616Z,22.72
2023-05-12T09:44:43.597Z,22.73
2023-05-12T09:45:44.473Z,22.72
2023-05-12T09:46:43.639Z,22.72
2023-05-12T09:47:43.720Z,22.72
2023-05-12T09:48:43.905Z,22.72
2023-05-12T09:49:43.706Z,22.71
2023-05-12T09:50:47.381Z,22.69
2023-05-12T09:51:43.719Z,22.70
2023-05-12T09:52:43.721Z,22.70
2023-05-12T09:53:43.693Z,22.72
2023-05-12T09:54:43.698Z,22.74
2023-05-12T09:55:43.660Z,22.76
2023-05-12T09:56:43.711Z,22.77
2023-05-12T09:57:43.647Z,22.79
2023-05-12T09:58:43.654Z,22.81
2023-05-12T09:59:43.892Z,22.84
2023-05-12T10:01:43.644Z,22.88
2023-05-12T10:02:43.685Z,22.91
2023-05-12T10:03:43.869Z,22.93
2023-05-12T10:04:43.720Z,22.96
2023-05-12T10:05:43.630Z,22.98
2023-05-12T10:06:43.595Z,23.02
2023-05-12T10:07:43.582Z,23.05
2023-05-12T10:08:43.882Z,23.07
2023-05-12T10:09:43.593Z,23.10
2023-05-12T10:10:43.595Z,23.14
2023-05-12T10:11:43.553Z,23.16
2023-05-12T10:12:43.552Z,23.19
2023-05-12T10:13:43.949Z,23.21
2023-05-12T10:14:43.513Z,23.24
2023-05-12T10:15:43.545Z,23.27
2023-05-12T10:16:43.553Z,23.29
2023-05-12T10:17:43.616Z,23.31
2023-05-12T10:18:43.951Z,23.34
2023-05-12T10:19:43.558Z,23.36
2023-05-12T10:20:43.482Z,23.38
2023-05-12T10:21:43.517Z,23.40
2023-05-12T10:22:43.475Z,23.42
2023-05-12T10:23:43.895Z,23.44
2023-05-12T10:24:43.439Z,23.46
2023-05-12T10:25:43.441Z,23.49
2023-05-12T10:26:43.454Z,23.51
2023-05-12T10:27:43.427Z,23.53
2023-05-12T10:28:43.423Z,23.56
2023-05-12T10:29:43.543Z,23.57
2023-05-12T10:30:44.396Z,23.58
2023-05-12T10:31:43.476Z,23.61
2023-05-12T10:32:43.412Z,23.62
2023-05-12T10:33:43.466Z,23.64
2023-05-12T10:34:43.399Z,23.67
2023-05-12T10:35:43.374Z,23.68
2023-05-12T10:36:43.355Z,23.70
2023-05-12T10:37:43.394Z,23.72
2023-05-12T10:38:43.429Z,23.73
2023-05-12T10:39:43.354Z,23.75
2023-05-12T10:40:43.338Z,23.77
2023-05-12T10:41:43.367Z,23.81
2023-05-12T10:42:43.391Z,23.84
2023-05-12T10:43:43.276Z,23.88
2023-05-12T10:44:43.425Z,23.90
2023-05-12T10:45:43.289Z,23.92
2023-05-12T10:46:43.312Z,23.94
2023-05-12T10:47:43.287Z,23.95
2023-05-12T10:48:43.258Z,23.96
2023-05-12T10:49:43.928Z,23.98
2023-05-12T10:50:43.261Z,24.00
2023-05-12T10:51:43.295Z,24.00
2023-05-12T10:52:43.243Z,24.02
2023-05-12T10:53:50.180Z,24.03
2023-05-12T10:54:44.271Z,24.02
2023-05-12T10:55:43.526Z,24.03
2023-05-12T10:56:43.307Z,24.05
2023-05-12T10:57:43.552Z,24.05
2023-05-12T10:58:43.458Z,24.06
2023-05-12T10:59:43.481Z,24.06
2023-05-12T11:00:43.949Z,24.06
2023-05-12T11:01:44.235Z,24.07
2023-05-12T11:02:43.509Z,24.07
2023-05-12T11:03:43.743Z,24.08
2023-05-12T11:04:43.551Z,24.08
2023-05-12T11:05:44.156Z,24.08
2023-05-12T11:06:43.415Z,24.10
2023-05-12T11:07:43.874Z,24.10
2023-05-12T11:08:44.126Z,24.10
2023-05-12T11:09:56.064Z,24.11
2023-05-12T11:10:44.155Z,24.12
2023-05-12T11:11:43.535Z,24.13
2023-05-12T11:12:43.137Z,24.14
2023-05-12T11:13:43.079Z,24.15
2023-05-12T11:14:43.480Z,24.16
2023-05-12T11:15:43.048Z,24.16
2023-05-12T11:16:43.095Z,24.17
2023-05-12T11:17:43.087Z,24.17
2023-05-12T11:18:43.060Z,24.17
2023-05-12T11:19:43.042Z,24.17
2023-05-12T11:20:43.000Z,24.17
2023-05-12T11:21:43.068Z,24.17
2023-05-12T11:22:43.025Z,24.17
2023-05-12T11:23:43.008Z,24.16
2023-05-12T11:24:43.466Z,24.16
2023-05-12T11:25:44.393Z,24.15
2023-05-12T11:26:43.069Z,24.16
2023-05-12T11:27:42.963Z,24.14
2023-05-12T11:28:42.957Z,24.14
2023-05-12T11:29:42.945Z,24.14
2023-05-12T11:30:42.986Z,24.13
2023-05-12T11:31:42.983Z,24.13
2023-05-12T11:32:43.004Z,24.12
2023-05-12T11:33:43.056Z,24.13
2023-05-12T11:34:43.473Z,24.12
2023-05-12T11:35:43.016Z,24.12
2023-05-12T11:36:43.049Z,24.09
2023-05-12T11:37:43.073Z,24.08
2023-05-12T11:38:43.085Z,24.04
2023-05-12T11:39:43.128Z,24.02
2023-05-12T11:40:43.149Z,24.01
2023-05-12T11:41:43.177Z,24.00
2023-05-12T11:42:43.215Z,23.99
2023-05-12T11:43:43.240Z,23.98
2023-05-12T11:44:43.253Z,23.97
2023-05-12T11:45:43.289Z,23.97
2023-05-12T11:46:43.314Z,23.98
2023-05-12T11:47:43.346Z,23.98
2023-05-12T11:48:43.316Z,23.98
2023-05-12T11:49:43.324Z,23.99
2023-05-12T11:50:43.336Z,23.99
2023-05-12T11:51:43.348Z,24.00
2023-05-12T11:52:43.500Z,24.00
2023-05-12T11:53:43.314Z,24.02
2023-05-12T11:54:43.708Z,24.03
2023-05-12T11:55:43.328Z,24.03
2023-05-12T11:56:43.342Z,24.04
2023-05-12T11:57:43.447Z,24.04
2023-05-12T11:58:43.338Z,24.06
2023-05-12T11:59:43.469Z,24.06
2023-05-12T12:00:43.334Z,24.07
2023-05-12T12:01:43.326Z,24.07
2023-05-12T12:02:43.489Z,24.08
2023-05-12T12:03:43.378Z,24.08
2023-05-12T12:04:43.701Z,24.08
2023-05-12T12:05:43.330Z,24.08
2023-05-12T12:06:43.358Z,24.10
2023-05-12T12:07:43.362Z,24.10
2023-05-12T12:08:43.342Z,24.10
2023-05-12T12:09:43.380Z,24.10
2023-05-12T12:10:43.369Z,24.11
2023-05-12T12:11:43.419Z,24.11
2023-05-12T12:12:43.387Z,24.11
2023-05-12T12:13:43.457Z,24.12
2023-05-12T12:14:44.138Z,24.12
2023-05-12T12:15:43.405Z,24.13
2023-05-12T12:16:43.390Z,24.14
2023-05-12T12:17:43.429Z,24.15
2023-05-12T12:18:43.419Z,24.15
2023-05-12T12:19:43.382Z,24.15
2023-05-12T12:20:43.410Z,24.16
2023-05-12T12:21:43.386Z,24.16
2023-05-12T12:22:43.384Z,24.16
2023-05-12T12:23:50.983Z,24.17
2023-05-12T12:24:44.497Z,24.16
2023-05-12T12:25:43.394Z,24.17
2023-05-12T12:26:43.356Z,24.18
2023-05-12T12:27:43.412Z,24.19
2023-05-12T12:28:43.342Z,24.19
2023-05-12T12:29:43.447Z,24.20
2023-05-12T12:30:43.355Z,24.20
2023-05-12T12:31:43.358Z,24.21
2023-05-12T12:32:43.356Z,24.22
2023-05-12T12:33:43.304Z,24.22
2023-05-12T12:34:43.313Z,24.23
2023-05-12T12:35:43.307Z,24.23
2023-05-12T12:36:43.288Z,24.23
2023-05-12T12:37:43.300Z,24.24
2023-05-12T12:38:43.287Z,24.24
2023-05-12T12:39:43.292Z,24.25
2023-05-12T12:40:43.268Z,24.24
2023-05-12T12:41:43.243Z,24.25
2023-05-12T12:42:43.229Z,24.25
2023-05-12T12:43:43.240Z,24.25
2023-05-12T12:44:43.255Z,24.24
2023-05-12T12:45:43.263Z,24.25
2023-05-12T12:46:43.280Z,24.25
2023-05-12T12:47:43.233Z,24.25
2023-05-12T12:48:43.211Z,24.25
2023-05-12T12:49:43.182Z,24.25
2023-05-12T12:50:43.193Z,24.26
2023-05-12T12:51:46.723Z,24.26
2023-05-12T12:52:43.191Z,24.26
2023-05-12T12:53:43.189Z,24.27
2023-05-12T12:54:43.139Z,24.27
2023-05-12T12:55:43.140Z,24.27